createdAt,value
2022-09-06T00:00:04.124Z,996.22
2022-09-06T00:01:04.111Z,996.28
2022-09-06T00:02:04.097Z,996.27
2022-09-06T00:03:04.195Z,996.19
2022-09-06T00:04:04.134Z,996.25
2022-09-06T00:05:04.057Z,996.28
2022-09-06T00:06:04.046Z,996.18
2022-09-06T00:07:04.031Z,996.22
2022-09-06T00:08:04.019Z,996.24
2022-09-06T00:09:04.007Z,996.21
2022-09-06T00:10:03.994Z,996.17
2022-09-06T00:11:03.981Z,996.20
2022-09-06T00:12:03.966Z,996.21
2022-09-06T00:13:03.952Z,996.15
2022-09-06T00:14:03.942Z,996.18
2022-09-06T00:15:03.925Z,996.14
2022-09-06T00:16:03.967Z,996.17
2022-09-06T00:17:03.901Z,996.19
2022-09-06T00:18:03.888Z,996.19
2022-09-06T00:19:03.873Z,996.14
2022-09-06T00:20:03.864Z,996.20
2022-09-06T00:21:03.848Z,996.13
2022-09-06T00:22:03.837Z,996.14
2022-09-06T00:23:03.820Z,996.14
2022-09-06T00:24:03.810Z,996.10
2022-09-06T00:25:03.796Z,996.07
2022-09-06T00:26:03.783Z,996.12
2022-09-06T00:27:03.771Z,996.08
2022-09-06T00:28:03.759Z,996.09
2022-09-06T00:29:03.744Z,996.04
2022-09-06T00:30:03.732Z,995.98
2022-09-06T00:31:03.765Z,995.99
2022-09-06T00:32:03.706Z,995.96
2022-09-06T00:33:03.694Z,995.88
2022-09-06T00:34:03.680Z,995.88
2022-09-06T00:35:03.666Z,995.85
2022-09-06T00:36:03.654Z,995.82
2022-09-06T00:37:03.640Z,995.82
2022-09-06T00:38:03.628Z,995.79
2022-09-06T00:39:03.613Z,995.86
2022-09-06T00:40:03.676Z,995.83
2022-09-06T00:41:03.588Z,995.80
2022-09-06T00:42:03.577Z,995.82
2022-09-06T00:43:03.562Z,995.79
2022-09-06T00:44:03.550Z,995.83
2022-09-06T00:45:03.539Z,995.79
2022-09-06T00:46:03.681Z,995.86
2022-09-06T00:47:03.519Z,995.89
2022-09-06T00:48:03.508Z,995.90
2022-09-06T00:49:03.486Z,995.88
2022-09-06T00:50:03.503Z,995.93
2022-09-06T00:51:03.460Z,995.98
2022-09-06T00:52:03.448Z,995.98
2022-09-06T00:53:03.434Z,995.93
2022-09-06T00:54:03.422Z,995.96
2022-09-06T00:55:03.409Z,996.00
2022-09-06T00:56:03.400Z,996.01
2022-09-06T00:57:03.384Z,996.01
2022-09-06T00:58:03.375Z,996.03
2022-09-06T00:59:03.356Z,996.03
2022-09-06T01:00:03.346Z,996.03
2022-09-06T01:01:03.331Z,996.05
2022-09-06T01:03:03.306Z,995.99
2022-09-06T01:04:03.291Z,995.99
2022-09-06T01:05:03.279Z,996.10
2022-09-06T01:06:03.265Z,996.07
2022-09-06T01:07:03.255Z,996.09
2022-09-06T01:08:03.241Z,996.10
2022-09-06T01:09:03.227Z,996.17
2022-09-06T01:10:03.216Z,996.12
2022-09-06T01:11:03.212Z,996.19
2022-09-06T01:12:03.188Z,996.24
2022-09-06T01:13:03.176Z,996.29
2022-09-06T01:14:03.162Z,996.30
2022-09-06T01:15:03.150Z,996.30
2022-09-06T01:16:03.237Z,996.35
2022-09-06T01:17:03.124Z,996.37
2022-09-06T01:18:03.113Z,996.56
2022-09-06T01:19:03.099Z,996.82
2022-09-06T01:20:03.085Z,997.02
2022-09-06T01:21:03.074Z,997.07
2022-09-06T01:22:03.068Z,996.98
2022-09-06T01:23:03.046Z,996.76
2022-09-06T01:24:03.036Z,996.80
2022-09-06T01:25:03.021Z,996.92
2022-09-06T01:26:03.010Z,997.00
2022-09-06T01:27:02.996Z,996.87
2022-09-06T01:28:02.982Z,996.66
2022-09-06T01:29:02.969Z,996.62
2022-09-06T01:30:02.959Z,996.75
2022-09-06T01:31:02.991Z,996.77
2022-09-06T01:32:02.930Z,996.82
2022-09-06T01:33:02.917Z,996.80
2022-09-06T01:34:02.903Z,996.71
2022-09-06T01:35:02.893Z,996.71
2022-09-06T01:36:02.877Z,996.59
2022-09-06T01:37:10.966Z,996.67
2022-09-06T01:38:04.852Z,996.67
2022-09-06T01:39:02.841Z,996.69
2022-09-06T01:40:02.891Z,996.66
2022-09-06T01:41:02.814Z,996.71
2022-09-06T01:42:02.800Z,996.74
2022-09-06T01:43:02.787Z,996.74
2022-09-06T01:44:02.775Z,996.77
2022-09-06T01:45:02.763Z,996.77
2022-09-06T01:46:02.838Z,996.82
2022-09-06T01:47:02.736Z,996.84
2022-09-06T01:48:02.722Z,996.87
2022-09-06T01:49:02.710Z,996.85
2022-09-06T01:50:02.695Z,996.92
2022-09-06T01:51:02.685Z,996.87
2022-09-06T01:52:02.671Z,996.96
2022-09-06T01:53:02.657Z,996.95
2022-09-06T01:54:02.644Z,996.99
2022-09-06T01:55:02.633Z,996.94
2022-09-06T01:56:02.618Z,996.92
2022-09-06T01:57:02.606Z,996.92
2022-09-06T01:58:02.591Z,996.91
2022-09-06T01:59:02.581Z,996.93
2022-09-06T02:00:02.566Z,996.86
2022-09-06T02:01:02.607Z,996.92
2022-09-06T02:02:02.621Z,996.88
2022-09-06T02:03:02.530Z,996.91
2022-09-06T02:04:02.514Z,996.90
2022-09-06T02:05:02.510Z,996.86
2022-09-06T02:06:02.488Z,996.99
2022-09-06T02:07:02.476Z,996.95
2022-09-06T02:08:02.461Z,996.91
2022-09-06T02:09:02.449Z,996.94
2022-09-06T02:10:02.435Z,996.97
2022-09-06T02:11:02.427Z,996.98
2022-09-06T02:12:02.413Z,996.90
2022-09-06T02:13:02.398Z,996.95
2022-09-06T02:14:02.387Z,996.96
2022-09-06T02:15:02.372Z,996.97
2022-09-06T02:16:02.358Z,996.93
2022-09-06T02:17:02.459Z,997.01
2022-09-06T02:18:02.334Z,996.95
2022-09-06T02:19:02.322Z,996.99
2022-09-06T02:20:02.308Z,997.02
2022-09-06T02:21:02.297Z,997.06
2022-09-06T02:22:02.289Z,997.03
2022-09-06T02:23:02.272Z,996.98
2022-09-06T02:24:02.259Z,997.03
2022-09-06T02:25:02.248Z,997.02
2022-09-06T02:26:02.234Z,997.03
2022-09-06T02:27:02.223Z,997.00
2022-09-06T02:28:02.211Z,997.02
2022-09-06T02:29:02.201Z,996.98
2022-09-06T02:30:02.190Z,996.98
2022-09-06T02:31:02.272Z,996.93
2022-09-06T02:32:02.162Z,996.98
2022-09-06T02:33:02.148Z,996.92
2022-09-06T02:34:02.134Z,996.91
2022-09-06T02:35:02.127Z,996.89
2022-09-06T02:36:02.108Z,996.85
2022-09-06T02:37:02.097Z,996.88
2022-09-06T02:38:02.084Z,996.74
2022-09-06T02:39:02.074Z,996.78
2022-09-06T02:40:02.210Z,996.79
2022-09-06T02:41:02.048Z,996.81
2022-09-06T02:42:02.036Z,996.77
2022-09-06T02:43:02.023Z,996.72
2022-09-06T02:44:02.013Z,996.77
2022-09-06T02:45:01.998Z,996.72
2022-09-06T02:46:02.069Z,996.66
2022-09-06T02:47:01.973Z,996.60
2022-09-06T02:48:01.959Z,996.56
2022-09-06T02:49:01.948Z,996.60
2022-09-06T02:50:01.933Z,996.59
2022-09-06T02:51:01.923Z,996.52
2022-09-06T02:52:01.911Z,996.53
2022-09-06T02:53:01.899Z,996.50
2022-09-06T02:54:01.885Z,996.47
2022-09-06T02:55:01.875Z,996.46
2022-09-06T02:56:01.861Z,996.46
2022-09-06T02:57:01.849Z,996.43
2022-09-06T02:58:01.835Z,996.35
2022-09-06T02:59:01.822Z,996.38
2022-09-06T03:00:01.809Z,996.32
2022-09-06T03:01:01.859Z,996.22
2022-09-06T03:02:01.857Z,996.20
2022-09-06T03:03:01.770Z,996.07
2022-09-06T03:04:01.756Z,996.09
2022-09-06T03:05:01.748Z,996.01
2022-09-06T03:06:01.732Z,995.98
2022-09-06T03:07:01.719Z,995.96
2022-09-06T03:08:01.707Z,995.94
2022-09-06T03:09:01.692Z,995.89
2022-09-06T03:10:01.677Z,995.95
2022-09-06T03:11:01.669Z,995.89
2022-09-06T03:12:01.652Z,995.84
2022-09-06T03:13:01.640Z,995.79
2022-09-06T03:14:01.626Z,995.76
2022-09-06T03:15:01.614Z,995.71
2022-09-06T03:16:01.601Z,995.73
2022-09-06T03:17:01.626Z,995.67
2022-09-06T03:18:01.576Z,995.78
2022-09-06T03:19:01.562Z,995.81
2022-09-06T03:20:01.549Z,995.78
2022-09-06T03:21:01.562Z,995.73
2022-09-06T03:22:01.525Z,995.72
2022-09-06T03:23:01.510Z,995.67
2022-09-06T03:24:01.496Z,995.71
2022-09-06T03:25:01.484Z,995.67
2022-09-06T03:26:01.470Z,995.67
2022-09-06T03:27:01.458Z,995.63
2022-09-06T03:28:01.446Z,995.54
2022-09-06T03:29:01.434Z,995.54
2022-09-06T03:30:01.418Z,995.52
2022-09-06T03:31:01.483Z,995.49
2022-09-06T03:32:01.392Z,995.44
2022-09-06T03:33:02.938Z,995.36
2022-09-06T03:34:01.366Z,995.33
2022-09-06T03:35:01.354Z,995.29
2022-09-06T03:36:01.340Z,995.30
2022-09-06T03:37:01.327Z,995.33
2022-09-06T03:38:01.314Z,995.36
2022-09-06T03:39:01.303Z,995.36
2022-09-06T03:40:01.392Z,995.43
2022-09-06T03:41:01.276Z,995.43
2022-09-06T03:42:01.265Z,995.34
2022-09-06T03:43:01.254Z,995.28
2022-09-06T03:44:01.236Z,995.32
2022-09-06T03:45:01.225Z,995.29
2022-09-06T03:46:01.290Z,995.32
2022-09-06T03:47:01.199Z,995.35
2022-09-06T03:48:01.184Z,995.34
2022-09-06T03:49:01.171Z,995.41
2022-09-06T03:50:01.156Z,995.42
2022-09-06T03:51:01.149Z,995.45
2022-09-06T03:52:01.132Z,995.54
2022-09-06T03:53:01.121Z,995.45
2022-09-06T03:54:01.109Z,995.44
2022-09-06T03:55:01.093Z,995.49
2022-09-06T03:56:01.081Z,995.45
2022-09-06T03:57:01.067Z,995.44
2022-09-06T03:58:01.053Z,995.37
2022-09-06T03:59:01.052Z,995.44
2022-09-06T04:00:01.028Z,995.38
2022-09-06T04:01:01.097Z,995.38
2022-09-06T04:02:01.107Z,995.39
2022-09-06T04:03:01.872Z,995.36
2022-09-06T04:04:00.977Z,995.38
2022-09-06T04:05:00.963Z,995.36
2022-09-06T04:06:00.954Z,995.41
2022-09-06T04:07:00.938Z,995.38
2022-09-06T04:08:00.924Z,995.41
2022-09-06T04:09:00.913Z,995.36
2022-09-06T04:10:00.899Z,995.38
2022-09-06T04:11:00.886Z,995.41
2022-09-06T04:12:00.872Z,995.34
2022-09-06T04:13:00.861Z,995.34
2022-09-06T04:14:00.846Z,995.36
2022-09-06T04:15:00.834Z,995.40
2022-09-06T04:16:00.820Z,995.35
2022-09-06T04:17:00.862Z,995.38
2022-09-06T04:18:00.797Z,995.40
2022-09-06T04:19:00.781Z,995.33
2022-09-06T04:20:00.774Z,995.32
2022-09-06T04:21:00.755Z,995.40
2022-09-06T04:22:00.747Z,995.36
2022-09-06T04:23:00.730Z,995.32
2022-09-06T04:24:00.716Z,995.33
2022-09-06T04:25:00.706Z,995.32
2022-09-06T04:26:00.690Z,995.37
2022-09-06T04:27:00.684Z,995.37
2022-09-06T04:28:00.665Z,995.36
2022-09-06T04:29:00.653Z,995.42
2022-09-06T04:30:00.641Z,995.40
2022-09-06T04:31:04.348Z,995.43
2022-09-06T04:32:00.667Z,995.46
2022-09-06T04:33:00.602Z,995.45
2022-09-06T04:34:00.589Z,995.46
2022-09-06T04:35:00.575Z,995.43
2022-09-06T04:36:00.561Z,995.50
2022-09-06T04:37:00.550Z,995.45
2022-09-06T04:38:00.547Z,995.47
2022-09-06T04:39:00.525Z,995.44
2022-09-06T04:40:00.590Z,995.44
2022-09-06T04:41:00.497Z,995.42
2022-09-06T04:42:00.483Z,995.47
2022-09-06T04:43:00.472Z,995.52
2022-09-06T04:44:00.458Z,995.47
2022-09-06T04:45:00.448Z,995.48
2022-09-06T04:46:00.472Z,995.55
2022-09-06T04:47:00.421Z,995.58
2022-09-06T04:48:00.406Z,995.55
2022-09-06T04:49:00.394Z,995.59
2022-09-06T04:50:00.385Z,995.60
2022-09-06T04:51:00.371Z,995.62
2022-09-06T04:52:00.354Z,995.69
2022-09-06T04:53:00.343Z,995.67
2022-09-06T04:54:00.330Z,995.70
2022-09-06T04:55:00.318Z,995.63
2022-09-06T04:56:00.306Z,995.67
2022-09-06T04:57:00.289Z,995.63
2022-09-06T04:58:00.276Z,995.64
2022-09-06T04:59:00.271Z,995.62
2022-09-06T05:00:00.259Z,995.58
2022-09-06T05:01:00.336Z,995.61
2022-09-06T05:02:00.316Z,995.57
2022-09-06T05:04:00.202Z,995.59
2022-09-06T05:05:00.196Z,995.63
2022-09-06T05:06:00.172Z,995.63
2022-09-06T05:07:00.160Z,995.69
2022-09-06T05:08:00.155Z,995.68
2022-09-06T05:09:00.132Z,995.71
2022-09-06T05:10:00.162Z,995.72
2022-09-06T05:11:00.107Z,995.79
2022-09-06T05:12:00.111Z,995.74
2022-09-06T05:13:00.082Z,995.79
2022-09-06T05:14:00.073Z,995.76
2022-09-06T05:15:00.065Z,995.84
2022-09-06T05:16:00.132Z,995.87
2022-09-06T05:17:00.029Z,995.87
2022-09-06T05:18:00.019Z,995.85
2022-09-06T05:19:00.003Z,995.82
2022-09-06T05:19:59.991Z,995.82
2022-09-06T05:20:59.976Z,995.82
2022-09-06T05:21:59.967Z,995.83
2022-09-06T05:22:59.951Z,995.81
2022-09-06T05:23:59.939Z,995.80
2022-09-06T05:24:59.925Z,995.85
2022-09-06T05:25:59.915Z,995.85
2022-09-06T05:26:59.899Z,995.90
2022-09-06T05:27:59.888Z,995.86
2022-09-06T05:28:59.872Z,995.85
2022-09-06T05:29:59.862Z,995.85
2022-09-06T05:30:59.848Z,995.89
2022-09-06T05:31:59.881Z,995.90
2022-09-06T05:32:59.821Z,995.91
2022-09-06T05:33:59.841Z,995.98
2022-09-06T05:34:59.795Z,995.93
2022-09-06T05:35:59.783Z,995.96
2022-09-06T05:36:59.768Z,995.98
2022-09-06T05:37:59.758Z,995.95
2022-09-06T05:38:59.749Z,995.93
2022-09-06T05:39:59.793Z,995.91
2022-09-06T05:40:59.727Z,995.94
2022-09-06T05:41:59.706Z,996.00
2022-09-06T05:42:59.691Z,996.02
2022-09-06T05:43:59.680Z,996.04
2022-09-06T05:44:59.668Z,996.04
2022-09-06T05:45:59.815Z,995.99
2022-09-06T05:46:59.640Z,996.01
2022-09-06T05:47:59.629Z,996.06
2022-09-06T05:48:59.614Z,996.01
2022-09-06T05:49:59.602Z,996.07
2022-09-06T05:50:59.589Z,996.11
2022-09-06T05:51:59.579Z,996.11
2022-09-06T05:52:59.562Z,996.11
2022-09-06T05:53:59.549Z,996.09
2022-09-06T05:54:59.536Z,996.11
2022-09-06T05:55:59.524Z,996.06
2022-09-06T05:56:59.514Z,996.09
2022-09-06T05:57:59.500Z,996.09
2022-09-06T05:58:59.485Z,996.07
2022-09-06T05:59:59.474Z,996.01
2022-09-06T06:00:59.464Z,996.04
2022-09-06T06:01:59.519Z,996.04
2022-09-06T06:02:59.432Z,996.11
2022-09-06T06:03:59.421Z,995.98
2022-09-06T06:04:59.407Z,996.09
2022-09-06T06:05:59.395Z,996.04
2022-09-06T06:06:59.381Z,996.01
2022-09-06T06:07:59.371Z,996.04
2022-09-06T06:08:59.355Z,996.01
2022-09-06T06:09:59.345Z,995.98
2022-09-06T06:10:59.329Z,996.03
2022-09-06T06:11:59.319Z,996.05
2022-09-06T06:12:59.305Z,996.08
2022-09-06T06:13:59.296Z,996.02
2022-09-06T06:14:59.281Z,996.05
2022-09-06T06:15:59.266Z,996.03
2022-09-06T06:16:59.310Z,996.05
2022-09-06T06:17:59.241Z,996.08
2022-09-06T06:18:59.228Z,996.05
2022-09-06T06:19:59.217Z,996.05
2022-09-06T06:20:59.203Z,996.04
2022-09-06T06:21:59.191Z,996.07
2022-09-06T06:22:59.178Z,996.06
2022-09-06T06:23:59.166Z,996.16
2022-09-06T06:24:59.152Z,996.15
2022-09-06T06:25:59.141Z,996.10
2022-09-06T06:26:59.128Z,996.08
2022-09-06T06:27:59.115Z,996.12
2022-09-06T06:28:59.100Z,996.09
2022-09-06T06:29:59.094Z,996.12
2022-09-06T06:30:59.077Z,996.12
2022-09-06T06:31:59.165Z,996.10
2022-09-06T06:32:59.056Z,996.09
2022-09-06T06:33:59.043Z,996.06
2022-09-06T06:34:59.029Z,996.07
2022-09-06T06:35:59.019Z,996.09
2022-09-06T06:36:59.005Z,996.09
2022-09-06T06:37:58.993Z,996.07
2022-09-06T06:38:58.981Z,996.03
2022-09-06T06:39:59.038Z,996.06
2022-09-06T06:41:03.188Z,996.07
2022-09-06T06:42:00.943Z,996.03
2022-09-06T06:42:58.929Z,996.04
2022-09-06T06:43:58.918Z,996.09
2022-09-06T06:44:58.909Z,996.10
2022-09-06T06:45:58.948Z,996.07
2022-09-06T06:46:58.880Z,996.09
2022-09-06T06:47:58.870Z,996.12
2022-09-06T06:48:58.857Z,996.06
2022-09-06T06:49:58.853Z,996.12
2022-09-06T06:50:58.833Z,996.16
2022-09-06T06:51:58.824Z,996.09
2022-09-06T06:52:58.810Z,996.12
2022-09-06T06:53:58.798Z,996.17
2022-09-06T06:54:58.784Z,996.17
2022-09-06T06:55:58.774Z,996.19
2022-09-06T06:56:58.762Z,996.16
2022-09-06T06:57:58.751Z,996.16
2022-09-06T06:58:58.737Z,996.19
2022-09-06T06:59:58.727Z,996.14
2022-09-06T07:00:58.825Z,996.15
2022-09-06T07:01:58.841Z,996.08
2022-09-06T07:02:58.687Z,996.11
2022-09-06T07:03:58.682Z,996.11
2022-09-06T07:04:58.759Z,996.13
2022-09-06T07:06:14.119Z,996.09
2022-09-06T07:07:58.625Z,996.10
2022-09-06T07:08:58.613Z,996.14
2022-09-06T07:10:58.587Z,996.21
2022-09-06T07:11:58.576Z,996.17
2022-09-06T07:12:58.563Z,996.13
2022-09-06T07:13:58.554Z,996.17
2022-09-06T07:14:58.539Z,996.07
2022-09-06T07:15:58.555Z,996.12
2022-09-06T07:16:58.515Z,996.13
2022-09-06T07:17:58.507Z,996.13
2022-09-06T07:18:58.492Z,996.02
2022-09-06T07:20:14.605Z,996.13
2022-09-06T07:22:00.287Z,996.08
2022-09-06T07:24:07.639Z,996.12
2022-09-06T07:25:00.418Z,996.13
2022-09-06T07:25:58.411Z,996.12
2022-09-06T07:27:59.091Z,996.10
2022-09-06T07:28:58.372Z,996.17
2022-09-06T07:29:58.362Z,996.13
2022-09-06T07:30:58.350Z,996.11
2022-09-06T07:32:13.659Z,996.19
2022-09-06T07:33:00.328Z,996.14
2022-09-06T07:33:58.319Z,996.12
2022-09-06T07:34:58.308Z,996.14
2022-09-06T07:35:58.294Z,996.13
2022-09-06T07:36:58.282Z,996.18
2022-09-06T07:37:58.271Z,996.11
2022-09-06T07:38:58.258Z,996.13
2022-09-06T07:39:58.285Z,996.15
2022-09-06T07:40:58.232Z,996.16
2022-09-06T07:41:58.222Z,996.21
2022-09-06T07:42:58.210Z,996.19
2022-09-06T07:43:58.201Z,996.19
2022-09-06T07:44:58.188Z,996.17
2022-09-06T07:45:58.656Z,996.13
2022-09-06T07:47:58.374Z,996.17
2022-09-06T07:48:58.142Z,996.19
2022-09-06T07:50:59.181Z,996.12
2022-09-06T07:51:58.202Z,996.10
2022-09-06T07:53:15.386Z,996.09
2022-09-06T07:54:28.645Z,996.13
2022-09-06T07:55:00.071Z,996.12
2022-09-06T07:55:58.062Z,996.12
2022-09-06T07:56:58.049Z,996.15
2022-09-06T07:57:58.039Z,996.13
2022-09-06T07:58:58.027Z,996.06
2022-09-06T07:59:58.021Z,996.04
2022-09-06T08:00:58.027Z,996.10
2022-09-06T08:01:58.088Z,996.04
2022-09-06T08:02:57.981Z,996.04
2022-09-06T08:03:57.972Z,996.06
2022-09-06T08:04:57.958Z,996.05
2022-09-06T08:06:13.219Z,996.09
2022-09-06T08:08:58.532Z,996.03
2022-09-06T08:09:57.903Z,996.09
2022-09-06T08:10:57.894Z,996.03
2022-09-06T08:11:57.881Z,996.00
2022-09-06T08:12:57.868Z,996.03
2022-09-06T08:13:57.858Z,996.07
2022-09-06T08:14:57.845Z,995.99
2022-09-06T08:15:57.861Z,996.06
2022-09-06T08:16:57.822Z,996.04
2022-09-06T08:17:57.812Z,996.04
2022-09-06T08:18:57.800Z,995.99
2022-09-06T08:19:57.793Z,996.04
2022-09-06T08:20:57.778Z,996.00
2022-09-06T08:21:57.768Z,995.99
2022-09-06T08:22:57.757Z,996.04
2022-09-06T08:23:57.744Z,996.01
2022-09-06T08:24:57.732Z,996.00
2022-09-06T08:25:57.722Z,996.02
2022-09-06T08:26:57.720Z,996.10
2022-09-06T08:27:57.698Z,995.99
2022-09-06T08:28:57.687Z,995.98
2022-09-06T08:29:57.677Z,996.00
2022-09-06T08:30:57.664Z,996.03
2022-09-06T08:31:57.681Z,995.96
2022-09-06T08:32:57.641Z,996.00
2022-09-06T08:33:57.632Z,995.99
2022-09-06T08:34:57.619Z,995.98
2022-09-06T08:35:57.610Z,995.89
2022-09-06T08:36:57.599Z,995.95
2022-09-06T08:37:57.589Z,995.93
2022-09-06T08:38:57.577Z,995.94
2022-09-06T08:39:57.648Z,995.90
2022-09-06T08:40:57.562Z,995.92
2022-09-06T08:41:57.549Z,995.93
2022-09-06T08:42:57.536Z,995.93
2022-09-06T08:44:58.113Z,995.91
2022-09-06T08:45:57.506Z,995.93
2022-09-06T08:46:57.567Z,995.93
2022-09-06T08:47:57.501Z,995.83
2022-09-06T08:48:57.473Z,995.87
2022-09-06T08:49:57.465Z,995.86
2022-09-06T08:50:57.453Z,995.86
2022-09-06T08:51:57.443Z,995.86
2022-09-06T08:53:16.355Z,995.82
2022-09-06T08:53:59.421Z,995.76
2022-09-06T08:54:57.410Z,995.80
2022-09-06T08:55:57.398Z,995.83
2022-09-06T08:56:57.386Z,995.71
2022-09-06T08:57:57.375Z,995.80
2022-09-06T08:58:57.362Z,995.77
2022-09-06T08:59:57.348Z,995.68
2022-09-06T09:00:57.451Z,995.71
2022-09-06T09:01:57.422Z,995.69
2022-09-06T09:02:57.313Z,995.68
2022-09-06T09:04:57.292Z,995.63
2022-09-06T09:05:57.281Z,995.51
2022-09-06T09:06:57.270Z,995.55
2022-09-06T09:07:57.262Z,995.53
2022-09-06T09:08:57.249Z,995.55
2022-09-06T09:09:57.239Z,995.47
2022-09-06T09:10:57.228Z,995.50
2022-09-06T09:11:57.219Z,995.54
2022-09-06T09:12:57.208Z,995.51
2022-09-06T09:13:57.198Z,995.53
2022-09-06T09:14:57.185Z,995.44
2022-09-06T09:15:57.245Z,995.44
2022-09-06T09:16:57.166Z,995.43
2022-09-06T09:17:57.156Z,995.44
2022-09-06T09:18:57.146Z,995.45
2022-09-06T09:19:57.136Z,995.41
2022-09-06T09:20:57.122Z,995.42
2022-09-06T09:21:57.115Z,995.36
2022-09-06T09:22:57.102Z,995.44
2022-09-06T09:23:57.098Z,995.46
2022-09-06T09:24:57.080Z,995.45
2022-09-06T09:25:57.071Z,995.43
2022-09-06T09:26:57.059Z,995.41
2022-09-06T09:27:57.051Z,995.37
2022-09-06T09:28:57.038Z,995.39
2022-09-06T09:30:57.070Z,995.36
2022-09-06T09:31:57.078Z,995.29
2022-09-06T09:32:56.998Z,995.35
2022-09-06T09:33:56.988Z,995.23
2022-09-06T09:34:56.976Z,995.25
2022-09-06T09:35:56.967Z,995.19
2022-09-06T09:37:59.439Z,995.23
2022-09-06T09:38:58.939Z,995.26
2022-09-06T09:39:56.977Z,995.24
2022-09-06T09:40:56.912Z,995.28
2022-09-06T09:41:56.901Z,995.25
2022-09-06T09:42:56.895Z,995.19
2022-09-06T09:43:59.205Z,995.22
2022-09-06T09:44:56.871Z,995.18
2022-09-06T09:45:56.858Z,995.11
2022-09-06T09:46:56.904Z,995.13
2022-09-06T09:47:56.836Z,995.22
2022-09-06T09:48:56.828Z,995.16
2022-09-06T09:49:56.815Z,995.13
2022-09-06T09:50:56.807Z,995.15
2022-09-06T09:51:56.795Z,995.16
2022-09-06T09:52:56.786Z,995.09
2022-09-06T09:53:56.781Z,995.13
2022-09-06T09:54:56.766Z,995.17
2022-09-06T09:55:56.757Z,995.12
2022-09-06T09:56:56.744Z,995.07
2022-09-06T09:57:56.732Z,995.12
2022-09-06T09:58:56.722Z,995.17
2022-09-06T09:59:56.718Z,995.18
2022-09-06T10:00:56.758Z,995.09
2022-09-06T10:01:56.691Z,995.02
2022-09-06T10:02:56.787Z,995.12
2022-09-06T10:04:56.660Z,995.08
2022-09-06T10:06:02.202Z,995.10
2022-09-06T10:07:14.136Z,995.06
2022-09-06T10:07:58.633Z,995.11
2022-09-06T10:08:56.618Z,995.03
2022-09-06T10:09:56.609Z,995.03
2022-09-06T10:10:56.597Z,995.10
2022-09-06T10:11:56.589Z,995.04
2022-09-06T10:12:56.578Z,994.99
2022-09-06T10:13:56.563Z,995.07
2022-09-06T10:14:56.553Z,995.05
2022-09-06T10:15:56.575Z,994.94
2022-09-06T10:16:56.533Z,994.92
2022-09-06T10:17:56.521Z,994.95
2022-09-06T10:18:56.512Z,994.97
2022-09-06T10:19:56.498Z,994.99
2022-09-06T10:20:56.492Z,994.99
2022-09-06T10:21:56.477Z,995.03
2022-09-06T10:22:56.471Z,995.03
2022-09-06T10:24:56.448Z,994.96
2022-09-06T10:25:56.436Z,994.94
2022-09-06T10:26:56.427Z,994.97
2022-09-06T10:28:10.826Z,994.91
2022-09-06T10:28:58.406Z,994.85
2022-09-06T10:29:56.396Z,994.84
2022-09-06T10:30:56.412Z,994.84
2022-09-06T10:31:56.376Z,994.81
2022-09-06T10:32:56.369Z,994.79
2022-09-06T10:33:56.357Z,994.71
2022-09-06T10:34:56.347Z,994.76
2022-09-06T10:35:56.336Z,994.73
2022-09-06T10:36:56.329Z,994.65
2022-09-06T10:37:56.316Z,994.66
2022-09-06T10:39:00.382Z,994.68
2022-09-06T10:39:56.371Z,994.66
2022-09-06T10:40:56.289Z,994.67
2022-09-06T10:41:56.278Z,994.61
2022-09-06T10:42:56.272Z,994.62
2022-09-06T10:43:56.263Z,994.58
2022-09-06T10:44:56.248Z,994.54
2022-09-06T10:45:56.239Z,994.70
2022-09-06T10:46:56.337Z,994.67
2022-09-06T10:47:56.216Z,994.56
2022-09-06T10:48:56.207Z,994.64
2022-09-06T10:49:56.195Z,994.64
2022-09-06T10:50:56.188Z,994.72
2022-09-06T10:51:56.176Z,994.61
2022-09-06T10:52:56.167Z,994.60
2022-09-06T10:53:56.156Z,994.68
2022-09-06T10:54:56.145Z,994.66
2022-09-06T10:55:59.734Z,994.67
2022-09-06T10:56:56.125Z,994.64
2022-09-06T10:59:56.095Z,994.54
2022-09-06T11:00:56.086Z,994.59
2022-09-06T11:01:56.232Z,994.60
2022-09-06T11:03:59.998Z,994.50
2022-09-06T11:05:56.036Z,994.51
2022-09-06T11:06:56.028Z,994.51
2022-09-06T11:08:58.315Z,994.58
2022-09-06T11:09:55.996Z,994.53
2022-09-06T11:10:55.987Z,994.54
2022-09-06T11:11:55.975Z,994.51
2022-09-06T11:12:55.964Z,994.52
2022-09-06T11:13:55.955Z,994.56
2022-09-06T11:14:55.945Z,994.61
2022-09-06T11:15:55.974Z,994.54
2022-09-06T11:16:55.923Z,994.55
2022-09-06T11:17:55.911Z,994.57
2022-09-06T11:18:55.902Z,994.59
2022-09-06T11:19:55.907Z,994.58
2022-09-06T11:20:55.882Z,994.58
2022-09-06T11:21:55.869Z,994.52
2022-09-06T11:22:55.860Z,994.46
2022-09-06T11:23:55.848Z,994.54
2022-09-06T11:24:55.838Z,994.48
2022-09-06T11:25:55.828Z,994.48
2022-09-06T11:26:55.821Z,994.49
2022-09-06T11:27:58.137Z,994.46
2022-09-06T11:28:55.797Z,994.39
2022-09-06T11:29:55.786Z,994.40
2022-09-06T11:30:55.839Z,994.41
2022-09-06T11:32:55.756Z,994.38
2022-09-06T11:34:00.705Z,994.38
2022-09-06T11:34:55.734Z,994.32
2022-09-06T11:35:55.723Z,994.34
2022-09-06T11:36:55.715Z,994.27
2022-09-06T11:37:55.701Z,994.28
2022-09-06T11:38:55.694Z,994.28
2022-09-06T11:40:55.676Z,994.21
2022-09-06T11:41:55.660Z,994.24
2022-09-06T11:42:55.650Z,994.28
2022-09-06T11:43:55.638Z,994.18
2022-09-06T11:44:55.630Z,994.23
2022-09-06T11:45:55.705Z,994.23
2022-09-06T11:46:55.735Z,994.24
2022-09-06T11:47:55.598Z,994.21
2022-09-06T11:48:55.588Z,994.19
2022-09-06T11:49:55.576Z,994.16
2022-09-06T11:50:55.568Z,994.12
2022-09-06T11:51:55.556Z,994.09
2022-09-06T11:52:55.547Z,994.18
2022-09-06T11:53:55.536Z,994.09
2022-09-06T11:54:55.526Z,994.08
2022-09-06T11:55:55.515Z,994.07
2022-09-06T11:56:55.507Z,994.06
2022-09-06T11:57:55.492Z,994.04
2022-09-06T11:58:55.484Z,994.08
2022-09-06T11:59:55.472Z,994.07
2022-09-06T12:00:55.463Z,994.03
2022-09-06T12:01:55.451Z,994.05
2022-09-06T12:04:04.084Z,994.11
2022-09-06T12:05:00.251Z,994.13
2022-09-06T12:05:55.410Z,994.04
2022-09-06T12:06:55.401Z,994.12
2022-09-06T12:07:55.389Z,994.09
2022-09-06T12:08:55.381Z,994.09
2022-09-06T12:09:55.367Z,993.98
2022-09-06T12:10:55.360Z,994.16
2022-09-06T12:11:55.347Z,994.14
2022-09-06T12:12:55.337Z,994.13
2022-09-06T12:13:55.325Z,994.15
2022-09-06T12:14:55.314Z,994.09
2022-09-06T12:15:55.418Z,993.96
2022-09-06T12:16:55.291Z,994.07
2022-09-06T12:17:55.283Z,994.02
2022-09-06T12:18:55.271Z,994.02
2022-09-06T12:19:55.259Z,994.03
2022-09-06T12:20:55.250Z,993.85
2022-09-06T12:21:55.238Z,994.06
2022-09-06T12:22:55.229Z,994.06
2022-09-06T12:23:55.217Z,994.05
2022-09-06T12:24:55.209Z,993.99
2022-09-06T12:25:55.199Z,994.02
2022-09-06T12:26:56.039Z,994.04
2022-09-06T12:27:55.181Z,994.00
2022-09-06T12:28:55.167Z,994.04
2022-09-06T12:29:55.154Z,993.95
2022-09-06T12:30:55.191Z,993.97
2022-09-06T12:31:55.131Z,993.99
2022-09-06T12:32:55.123Z,993.93
2022-09-06T12:33:55.110Z,993.98
2022-09-06T12:36:55.079Z,993.90
2022-09-06T12:37:55.069Z,993.92
2022-09-06T12:38:55.055Z,993.83
2022-09-06T12:39:55.178Z,993.77
2022-09-06T12:40:55.034Z,993.83
2022-09-06T12:41:55.044Z,993.81
2022-09-06T12:42:55.012Z,993.78
2022-09-06T12:43:55.001Z,993.73
2022-09-06T12:44:54.991Z,993.78
2022-09-06T12:45:54.982Z,993.81
2022-09-06T12:46:54.972Z,993.76
2022-09-06T12:47:54.960Z,993.70
2022-09-06T12:48:54.951Z,993.66
2022-09-06T12:49:54.940Z,993.63
2022-09-06T12:50:54.931Z,993.75
2022-09-06T12:51:54.919Z,993.64
2022-09-06T12:52:54.909Z,993.65
2022-09-06T12:53:54.901Z,993.64
2022-09-06T12:54:54.890Z,993.65